createdAt,value
2023-04-25T00:01:50.093Z,101105.41
2023-04-25T00:04:16.928Z,101100.19
2023-04-25T00:06:43.649Z,101107.00
2023-04-25T00:09:12.012Z,101112.28
2023-04-25T00:11:38.875Z,101113.81
2023-04-25T00:14:05.755Z,101117.22
2023-04-25T00:16:34.916Z,101114.19
2023-04-25T00:19:04.118Z,101115.31
2023-04-25T00:21:32.537Z,101116.81
2023-04-25T00:23:59.185Z,101121.72
2023-04-25T00:26:26.004Z,101128.91
2023-04-25T00:28:52.903Z,101120.97
2023-04-25T00:31:19.663Z,101119.44
2023-04-25T00:33:46.238Z,101120.19
2023-04-25T00:36:12.907Z,101115.31
2023-04-25T00:38:39.530Z,101121.72
2023-04-25T00:41:08.074Z,101124.00
2023-04-25T00:43:35.153Z,101125.53
2023-04-25T00:46:02.194Z,101125.94
2023-04-25T00:48:28.704Z,101131.28
2023-04-25T00:50:58.993Z,101129.78
2023-04-25T00:53:27.444Z,101134.31
2023-04-25T00:55:54.822Z,101125.25
2023-04-25T00:58:22.701Z,101126.00
2023-04-25T01:00:51.517Z,101137.34
2023-04-25T01:03:20.695Z,101130.16
2023-04-25T01:05:48.513Z,101126.41
2023-04-25T01:08:15.522Z,101122.28
2023-04-25T01:10:42.130Z,101127.59
2023-04-25T01:13:09.230Z,101131.38
2023-04-25T01:15:36.981Z,101133.28
2023-04-25T01:18:06.318Z,101132.19
2023-04-25T01:20:34.231Z,101137.47
2023-04-25T01:23:01.466Z,101140.50
2023-04-25T01:25:28.274Z,101140.53
2023-04-25T01:27:54.789Z,101148.09
2023-04-25T01:30:21.360Z,101145.50
2023-04-25T01:32:49.125Z,101152.28
2023-04-25T01:35:15.843Z,101147.84
2023-04-25T01:37:43.897Z,101149.75
2023-04-25T01:40:13.622Z,101150.53
2023-04-25T01:42:43.260Z,101146.78
2023-04-25T01:45:12.004Z,101148.31
2023-04-25T01:47:40.559Z,101154.34
2023-04-25T01:50:08.601Z,101158.13
2023-04-25T01:52:36.760Z,101161.91
2023-04-25T01:55:04.353Z,101161.19
2023-04-25T01:57:33.392Z,101166.09
2023-04-25T02:00:04.055Z,101160.09
2023-04-25T02:02:39.749Z,101163.13
2023-04-25T02:05:14.569Z,101163.91
2023-04-25T02:07:43.203Z,101164.28
2023-04-25T02:10:10.328Z,101178.25
2023-04-25T02:12:45.643Z,101169.25
2023-04-25T02:15:23.689Z,101171.13
2023-04-25T02:17:57.462Z,101172.28
2023-04-25T02:20:25.403Z,101176.44
2023-04-25T02:22:52.480Z,101176.47
2023-04-25T02:25:21.178Z,101179.88
2023-04-25T02:27:49.253Z,101175.00
2023-04-25T02:30:16.845Z,101177.63
2023-04-25T02:32:43.496Z,101175.03
2023-04-25T02:35:10.729Z,101180.31
2023-04-25T02:37:40.578Z,101181.84
2023-04-25T02:40:07.839Z,101180.72
2023-04-25T02:42:34.931Z,101184.50
2023-04-25T02:45:01.710Z,101186.38
2023-04-25T02:47:28.351Z,101183.00
2023-04-25T02:49:54.995Z,101180.00
2023-04-25T02:52:22.237Z,101175.47
2023-04-25T02:54:56.455Z,101181.09
2023-04-25T02:57:23.337Z,101184.50
2023-04-25T02:59:49.784Z,101183.00
2023-04-25T03:02:16.477Z,101187.13
2023-04-25T03:04:43.136Z,101192.41
2023-04-25T03:07:09.832Z,101183.00
2023-04-25T03:09:36.461Z,101184.50
2023-04-25T03:12:03.389Z,101186.38
2023-04-25T03:14:29.857Z,101180.38
2023-04-25T03:16:56.699Z,101179.25
2023-04-25T03:19:23.681Z,101186.03
2023-04-25T03:21:50.280Z,101186.03
2023-04-25T03:24:16.799Z,101193.19
2023-04-25T03:26:43.232Z,101196.59
2023-04-25T03:29:09.752Z,101200.72
2023-04-25T03:31:38.393Z,101198.84
2023-04-25T03:34:04.970Z,101198.09
2023-04-25T03:36:31.515Z,101194.34
2023-04-25T03:38:58.006Z,101201.13
2023-04-25T03:41:24.480Z,101206.38
2023-04-25T03:43:55.010Z,101212.38
2023-04-25T03:46:21.908Z,101213.88
2023-04-25T03:48:49.163Z,101212.38
2023-04-25T03:51:21.775Z,101216.88
2023-04-25T03:53:49.466Z,101219.50
2023-04-25T03:56:36.477Z,101216.47
2023-04-25T03:59:13.514Z,101217.59
2023-04-25T04:01:39.986Z,101214.56
2023-04-25T04:04:06.604Z,101218.31
2023-04-25T04:06:34.837Z,101215.66
2023-04-25T04:09:16.469Z,101222.06
2023-04-25T04:11:44.131Z,101231.84
2023-04-25T04:14:11.379Z,101236.72
2023-04-25T04:16:41.623Z,101230.72
2023-04-25T04:19:09.336Z,101234.09
2023-04-25T04:21:37.085Z,101236.72
2023-04-25T04:24:04.337Z,101236.34
2023-04-25T04:26:39.674Z,101234.47
2023-04-25T04:29:23.665Z,101232.94
2023-04-25T04:32:02.000Z,101235.19
2023-04-25T04:34:29.920Z,101235.94
2023-04-25T04:36:57.045Z,101236.69
2023-04-25T04:39:23.814Z,101246.13
2023-04-25T04:42:02.771Z,101247.63
2023-04-25T04:44:59.545Z,101246.47
2023-04-25T04:47:40.433Z,101248.34
2023-04-25T04:50:18.051Z,101251.34
2023-04-25T04:53:05.235Z,101258.88
2023-04-25T04:55:45.330Z,101263.38
2023-04-25T04:58:41.051Z,101270.53
2023-04-25T05:01:27.155Z,101264.88
2023-04-25T05:04:04.972Z,101278.38
2023-04-25T05:06:48.779Z,101277.63
2023-04-25T05:09:28.295Z,101281.00
2023-04-25T05:12:06.231Z,101289.28
2023-04-25T05:14:51.204Z,101285.53
2023-04-25T05:17:35.536Z,101290.41
2023-04-25T05:20:21.737Z,101297.94
2023-04-25T05:22:51.089Z,101297.91
2023-04-25T05:25:21.836Z,101301.69
2023-04-25T05:27:59.232Z,101304.69
2023-04-25T05:30:40.457Z,101304.31
2023-04-25T05:33:15.461Z,101304.66
2023-04-25T05:35:42.541Z,101309.53
2023-04-25T05:38:09.214Z,101314.81
2023-04-25T05:40:55.682Z,101317.78
2023-04-25T05:44:00.908Z,101316.22
2023-04-25T05:46:34.007Z,101322.25
2023-04-25T05:49:23.932Z,101318.06
2023-04-25T05:52:20.197Z,101331.22
2023-04-25T05:55:18.753Z,101335.72
2023-04-25T05:57:46.195Z,101340.59
2023-04-25T06:00:15.960Z,101337.91
2023-04-25T06:02:44.299Z,101345.78
2023-04-25T06:05:13.724Z,101343.84
2023-04-25T06:07:40.430Z,101353.56
2023-04-25T06:10:07.712Z,101351.63
2023-04-25T06:12:34.389Z,101353.47
2023-04-25T06:15:02.251Z,101363.94
2023-04-25T06:17:31.519Z,101363.88
2023-04-25T06:19:58.643Z,101366.09
2023-04-25T06:22:25.132Z,101363.78
2023-04-25T06:24:51.540Z,101363.63
2023-04-25T06:27:18.007Z,101365.78
2023-04-25T06:29:44.482Z,101367.94
2023-04-25T06:32:10.881Z,101368.63
2023-04-25T06:34:37.353Z,101373.72
2023-04-25T06:37:03.829Z,101372.56
2023-04-25T06:39:30.373Z,101367.84
2023-04-25T06:41:56.777Z,101376.53
2023-04-25T06:44:41.659Z,101373.16
2023-04-25T06:47:09.768Z,101381.44
2023-04-25T06:49:36.284Z,101382.19
2023-04-25T06:52:03.627Z,101379.22
2023-04-25T06:54:30.735Z,101389.03
2023-04-25T06:57:05.350Z,101393.56
2023-04-25T06:59:33.789Z,101392.34
2023-04-25T07:02:00.549Z,101394.09
2023-04-25T07:04:27.354Z,101397.75
2023-04-25T07:06:56.707Z,101395.88
2023-04-25T07:09:46.356Z,101404.16
2023-04-25T07:12:12.871Z,101406.38
2023-04-25T07:14:40.165Z,101399.88
2023-04-25T07:17:08.016Z,101408.53
2023-04-25T07:19:35.625Z,101411.56
2023-04-25T07:22:03.092Z,101421.41
2023-04-25T07:24:30.018Z,101414.25
2023-04-25T07:26:57.629Z,101424.16
2023-04-25T07:29:31.820Z,101425.53
2023-04-25T07:32:00.380Z,101427.47
2023-04-25T07:34:26.918Z,101432.34
2023-04-25T07:36:54.724Z,101432.22
2023-04-25T07:39:24.032Z,101428.88
2023-04-25T07:41:53.771Z,101428.22
2023-04-25T07:44:26.835Z,101445.69
2023-04-25T07:46:53.286Z,101432.28
2023-04-25T07:49:19.948Z,101446.19
2023-04-25T07:51:46.422Z,101455.50
2023-04-25T07:54:16.604Z,101447.88
2023-04-25T07:56:52.938Z,101450.38
2023-04-25T07:59:23.620Z,101449.22
2023-04-25T08:01:50.330Z,101461.50
2023-04-25T08:04:19.028Z,101464.81
2023-04-25T08:06:54.645Z,101459.97
2023-04-25T08:09:25.792Z,101463.28
2023-04-25T08:11:53.437Z,101468.66
2023-04-25T08:14:26.253Z,101470.31
2023-04-25T08:16:53.097Z,101471.56
2023-04-25T08:19:20.480Z,101481.63
2023-04-25T08:21:47.414Z,101489.19
2023-04-25T08:24:18.796Z,101492.16
2023-04-25T08:26:45.318Z,101512.22
2023-04-25T08:29:16.335Z,101504.69
2023-04-25T08:31:43.306Z,101505.69
2023-04-25T08:34:10.691Z,101515.63
2023-04-25T08:36:45.891Z,101511.88
2023-04-25T08:39:40.102Z,101513.19
2023-04-25T08:42:28.678Z,101510.47
2023-04-25T08:44:56.470Z,101512.25
2023-04-25T08:47:29.237Z,101524.94
2023-04-25T08:49:58.170Z,101519.22
2023-04-25T08:52:25.615Z,101522.81
2023-04-25T08:54:53.773Z,101529.78
2023-04-25T08:57:22.001Z,101531.56
2023-04-25T08:59:50.200Z,101530.81
2023-04-25T09:02:19.711Z,101541.06
2023-04-25T09:04:50.408Z,101551.31
2023-04-25T09:07:19.574Z,101548.09
2023-04-25T09:09:46.255Z,101556.97
2023-04-25T09:12:15.364Z,101553.72
2023-04-25T09:14:43.404Z,101557.25
2023-04-25T09:17:20.188Z,101556.75
2023-04-25T09:19:49.281Z,101563.03
2023-04-25T09:22:23.733Z,101563.91
2023-04-25T09:24:52.117Z,101563.66
2023-04-25T09:27:21.516Z,101563.59
2023-04-25T09:29:58.303Z,101565.00
2023-04-25T09:32:25.851Z,101570.56
2023-04-25T09:34:57.701Z,101572.97
2023-04-25T09:37:30.596Z,101577.88
2023-04-25T09:40:31.361Z,101585.09
2023-04-25T09:43:26.371Z,101578.59
2023-04-25T09:45:59.074Z,101602.47
2023-04-25T09:48:27.772Z,101601.38
2023-04-25T09:51:09.088Z,101606.38
2023-04-25T09:53:40.973Z,101615.75
2023-04-25T09:56:20.780Z,101629.66
2023-04-25T09:58:51.374Z,101629.19
2023-04-25T10:01:18.033Z,101624.00
2023-04-25T10:04:02.301Z,101628.22
2023-04-25T10:06:54.492Z,101633.13
2023-04-25T10:09:22.353Z,101627.91
2023-04-25T10:11:52.042Z,101635.63
2023-04-25T10:14:19.803Z,101629.34
2023-04-25T10:16:47.995Z,101627.06
2023-04-25T10:19:14.760Z,101626.78
2023-04-25T10:21:53.806Z,101630.53
2023-04-25T10:24:21.538Z,101626.06
2023-04-25T10:26:49.446Z,101620.34
2023-04-25T10:29:24.189Z,101618.06
2023-04-25T10:31:51.000Z,101630.31
2023-04-25T10:34:18.663Z,101624.53
2023-04-25T10:36:53.000Z,101628.03
2023-04-25T10:39:28.186Z,101624.19
2023-04-25T10:42:00.012Z,101618.75
2023-04-25T10:44:30.648Z,101624.88
2023-04-25T10:46:58.807Z,101625.44
2023-04-25T10:49:36.293Z,101632.53
2023-04-25T10:52:30.657Z,101615.44
2023-04-25T10:54:58.236Z,101631.34
2023-04-25T10:57:45.841Z,101635.66
2023-04-25T11:00:14.314Z,101622.69
2023-04-25T11:02:47.931Z,101628.75
2023-04-25T11:05:36.339Z,101623.75
2023-04-25T11:08:12.571Z,101639.75
2023-04-25T11:10:41.199Z,101634.69
2023-04-25T11:13:07.686Z,101641.78
2023-04-25T11:15:34.230Z,101655.03
2023-04-25T11:18:00.771Z,101660.13
2023-04-25T11:20:29.560Z,101666.41
2023-04-25T11:22:58.613Z,101660.31
2023-04-25T11:25:25.487Z,101664.97
2023-04-25T11:27:58.079Z,101672.91
2023-04-25T11:30:26.422Z,101675.53
2023-04-25T11:32:53.766Z,101670.91
2023-04-25T11:35:23.610Z,101671.03
2023-04-25T11:37:51.093Z,101674.59
2023-04-25T11:40:17.770Z,101680.66
2023-04-25T11:42:45.967Z,101675.34
2023-04-25T11:45:12.940Z,101671.78
2023-04-25T11:47:40.175Z,101672.06
2023-04-25T11:50:08.934Z,101681.47
2023-04-25T11:52:42.901Z,101678.47
2023-04-25T11:55:16.317Z,101677.06
2023-04-25T11:57:45.111Z,101676.16
2023-04-25T12:00:17.504Z,101673.00
2023-04-25T12:02:47.160Z,101671.94
2023-04-25T12:07:48.652Z,101673.13
2023-04-25T12:10:18.046Z,101672.03
2023-04-25T12:12:46.862Z,101672.56
2023-04-25T12:15:25.146Z,101679.09
2023-04-25T12:17:53.755Z,101679.94
2023-04-25T12:20:24.659Z,101686.19
2023-04-25T12:22:52.319Z,101683.59
2023-04-25T12:25:39.301Z,101693.66
2023-04-25T12:28:16.494Z,101694.00
2023-04-25T12:30:55.976Z,101699.88
2023-04-25T12:33:23.540Z,101696.53
2023-04-25T12:35:50.146Z,101704.34
2023-04-25T12:38:28.104Z,101696.34
2023-04-25T12:40:55.448Z,101696.50
2023-04-25T12:43:22.808Z,101707.31
2023-04-25T12:45:53.849Z,101706.97
2023-04-25T12:48:21.024Z,101700.91
2023-04-25T12:50:51.480Z,101700.69
2023-04-25T12:53:19.839Z,101697.25
2023-04-25T12:55:49.819Z,101695.97
2023-04-25T12:58:18.585Z,101704.41
2023-04-25T13:00:45.713Z,101687.19
2023-04-25T13:03:13.605Z,101690.09
2023-04-25T13:05:40.705Z,101696.44
2023-04-25T13:08:07.269Z,101689.44
2023-04-25T13:10:34.966Z,101688.03
2023-04-25T13:13:02.212Z,101687.09
2023-04-25T13:15:29.473Z,101705.22
2023-04-25T13:17:57.091Z,101707.75
2023-04-25T13:20:23.894Z,101700.59
2023-04-25T13:22:50.836Z,101704.41
2023-04-25T13:25:17.516Z,101706.31
2023-04-25T13:27:45.165Z,101710.22
2023-04-25T13:30:12.429Z,101706.13
2023-04-25T13:32:39.264Z,101703.31
2023-04-25T13:35:10.451Z,101701.59
2023-04-25T13:37:38.231Z,101710.38
2023-04-25T13:40:07.285Z,101711.66
2023-04-25T13:42:33.715Z,101707.00
2023-04-25T13:45:00.202Z,101703.59
2023-04-25T13:47:27.617Z,101707.75
2023-04-25T13:49:55.514Z,101714.97
2023-04-25T13:52:22.102Z,101718.06
2023-04-25T13:54:48.683Z,101717.16
2023-04-25T13:57:15.259Z,101715.06
2023-04-25T13:59:41.837Z,101712.66
2023-04-25T14:02:08.381Z,101713.81
2023-04-25T14:04:34.916Z,101715.06
2023-04-25T14:07:03.062Z,101718.22
2023-04-25T14:09:30.033Z,101731.53
2023-04-25T14:11:57.371Z,101727.63
2023-04-25T14:14:24.530Z,101718.19
2023-04-25T14:16:52.551Z,101728.91
2023-04-25T14:19:21.582Z,101712.66
2023-04-25T14:21:48.680Z,101726.59
2023-04-25T14:24:15.321Z,101720.84
2023-04-25T14:26:42.827Z,101724.19
2023-04-25T14:29:12.705Z,101727.41
2023-04-25T14:31:41.079Z,101724.50
2023-04-25T14:34:08.202Z,101722.63
2023-04-25T14:36:35.025Z,101719.22
2023-04-25T14:39:01.964Z,101720.72
2023-04-25T14:41:28.568Z,101717.00
2023-04-25T14:43:55.495Z,101727.66
2023-04-25T14:46:25.826Z,101726.47
2023-04-25T14:48:52.566Z,101739.34
2023-04-25T14:51:19.134Z,101739.75
2023-04-25T14:53:45.609Z,101742.09
2023-04-25T14:56:12.228Z,101733.34
2023-04-25T14:58:41.356Z,101738.19
2023-04-25T15:01:08.098Z,101740.25
2023-04-25T15:03:35.036Z,101735.53
2023-04-25T15:06:01.738Z,101728.88
2023-04-25T15:08:31.160Z,101735.63
2023-04-25T15:10:57.790Z,101732.72
2023-04-25T15:13:24.372Z,101724.13
2023-04-25T15:15:52.218Z,101734.56
2023-04-25T15:18:22.858Z,101732.03
2023-04-25T15:20:50.437Z,101753.50
2023-04-25T15:23:17.948Z,101757.56
2023-04-25T15:25:44.585Z,101748.75
2023-04-25T15:28:11.144Z,101756.41
2023-04-25T15:30:38.129Z,101762.34
2023-04-25T15:33:04.668Z,101768.13
2023-04-25T15:35:31.129Z,101760.44
2023-04-25T15:37:57.678Z,101766.03
2023-04-25T15:40:24.149Z,101763.84
2023-04-25T15:42:51.761Z,101765.84
2023-04-25T15:45:21.438Z,101776.75
2023-04-25T15:47:48.110Z,101778.84
2023-04-25T15:50:17.506Z,101776.31
2023-04-25T15:52:44.182Z,101779.03
2023-04-25T15:55:12.789Z,101783.53
2023-04-25T15:57:39.440Z,101778.72
2023-04-25T16:00:13.000Z,101790.41
2023-04-25T16:02:41.612Z,101788.56
2023-04-25T16:05:09.332Z,101786.72
2023-04-25T16:07:36.276Z,101786.88
2023-04-25T16:10:03.390Z,101788.53
2023-04-25T16:12:31.155Z,101793.78
2023-04-25T16:14:58.213Z,101792.47
2023-04-25T16:17:25.382Z,101784.91
2023-04-25T16:19:51.915Z,101797.03
2023-04-25T16:22:18.435Z,101789.47
2023-04-25T16:24:45.166Z,101795.53
2023-04-25T16:27:11.931Z,101799.06
2023-04-25T16:29:38.784Z,101797.91
2023-04-25T16:32:05.862Z,101803.53
2023-04-25T16:34:32.835Z,101796.97
2023-04-25T16:36:59.399Z,101804.97
2023-04-25T16:39:25.874Z,101805.84
2023-04-25T16:41:53.073Z,101802.84
2023-04-25T16:44:19.609Z,101806.84
2023-04-25T16:46:46.177Z,101805.75
2023-04-25T16:49:12.679Z,101807.31
2023-04-25T16:51:39.128Z,101804.94
2023-04-25T16:54:05.694Z,101807.94
2023-04-25T16:56:32.169Z,101812.22
2023-04-25T16:58:58.636Z,101808.06
2023-04-25T17:01:25.222Z,101801.19
2023-04-25T17:03:52.016Z,101802.00
2023-04-25T17:06:18.569Z,101797.84
2023-04-25T17:08:45.033Z,101798.38
2023-04-25T17:11:11.739Z,101811.81
2023-04-25T17:13:38.222Z,101809.81
2023-04-25T17:16:05.326Z,101819.84
2023-04-25T17:18:32.623Z,101817.31
2023-04-25T17:20:59.394Z,101822.69
2023-04-25T17:23:26.261Z,101831.91
2023-04-25T17:25:53.398Z,101830.88
2023-04-25T17:28:19.834Z,101832.41
2023-04-25T17:30:46.269Z,101831.38
2023-04-25T17:33:12.819Z,101837.41
2023-04-25T17:35:39.280Z,101845.38
2023-04-25T17:38:06.222Z,101836.31
2023-04-25T17:40:32.750Z,101832.13
2023-04-25T17:42:59.294Z,101835.53
2023-04-25T17:45:25.923Z,101837.88
2023-04-25T17:47:52.493Z,101847.03
2023-04-25T17:50:19.422Z,101846.41
2023-04-25T17:52:48.225Z,101849.88
2023-04-25T17:55:14.758Z,101850.69
2023-04-25T17:57:41.207Z,101847.75
2023-04-25T18:00:09.252Z,101839.13
2023-04-25T18:02:45.172Z,101846.06
2023-04-25T18:05:11.754Z,101847.22
2023-04-25T18:07:38.299Z,101847.66
2023-04-25T18:10:05.852Z,101856.47
2023-04-25T18:12:34.032Z,101859.88
2023-04-25T18:15:01.740Z,101858.38
2023-04-25T18:17:28.629Z,101858.00
2023-04-25T18:19:55.493Z,101864.47
2023-04-25T18:22:22.396Z,101867.91
2023-04-25T18:24:50.658Z,101864.91
2023-04-25T18:27:17.317Z,101872.50
2023-04-25T18:29:45.331Z,101872.53
2023-04-25T18:32:12.214Z,101866.84
2023-04-25T18:34:41.496Z,101869.16
2023-04-25T18:37:08.413Z,101872.94
2023-04-25T18:39:34.895Z,101877.91
2023-04-25T18:42:06.481Z,101873.38
2023-04-25T18:44:36.406Z,101874.59
2023-04-25T18:47:03.032Z,101890.91
2023-04-25T18:49:30.860Z,101883.00
2023-04-25T18:51:57.934Z,101883.41
2023-04-25T18:54:24.501Z,101892.50
2023-04-25T18:56:51.323Z,101888.38
2023-04-25T18:59:18.192Z,101897.13
2023-04-25T19:01:44.665Z,101898.28
2023-04-25T19:04:11.531Z,101893.81
2023-04-25T19:06:38.230Z,101904.78
2023-04-25T19:09:04.719Z,101897.25
2023-04-25T19:11:31.178Z,101909.00
2023-04-25T19:13:57.699Z,101902.59
2023-04-25T19:16:26.168Z,101906.38
2023-04-25T19:18:55.266Z,101914.72
2023-04-25T19:21:22.600Z,101915.53
2023-04-25T19:23:49.118Z,101908.75
2023-04-25T19:26:18.892Z,101911.78
2023-04-25T19:28:45.417Z,101914.44
2023-04-25T19:31:12.975Z,101920.50
2023-04-25T19:33:39.513Z,101915.97
2023-04-25T19:36:05.956Z,101919.78
2023-04-25T19:38:32.488Z,101929.25
2023-04-25T19:40:59.145Z,101925.88
2023-04-25T19:43:26.115Z,101926.25
2023-04-25T19:45:52.774Z,101924.38
2023-04-25T19:48:19.830Z,101929.28
2023-04-25T19:50:46.406Z,101927.41
2023-04-25T19:53:12.860Z,101927.03
2023-04-25T19:55:39.335Z,101934.56
2023-04-25T19:58:06.886Z,101927.03
2023-04-25T20:00:33.388Z,101934.22
2023-04-25T20:03:00.067Z,101931.19
2023-04-25T20:05:27.360Z,101933.84
2023-04-25T20:07:53.878Z,101936.44
2023-04-25T20:10:20.455Z,101939.84
2023-04-25T20:12:47.013Z,101936.06
2023-04-25T20:15:13.492Z,101938.72
2023-04-25T20:17:43.249Z,101939.81
2023-04-25T20:20:11.360Z,101929.25
2023-04-25T20:22:40.178Z,101943.63
2023-04-25T20:25:08.664Z,101941.72
2023-04-25T20:27:37.818Z,101948.88
2023-04-25T20:30:09.281Z,101946.59
2023-04-25T20:32:36.519Z,101944.34
2023-04-25T20:35:04.981Z,101939.41
2023-04-25T20:37:31.695Z,101942.81
2023-04-25T20:40:02.493Z,101939.03
2023-04-25T20:42:28.986Z,101944.66
2023-04-25T20:44:55.912Z,101943.16
2023-04-25T20:47:22.512Z,101948.41
2023-04-25T20:49:49.049Z,101942.34
2023-04-25T20:52:16.986Z,101940.44
2023-04-25T20:54:43.540Z,101949.84
2023-04-25T20:57:10.019Z,101951.34
2023-04-25T20:59:36.442Z,101946.38
2023-04-25T21:02:03.004Z,101947.13
2023-04-25T21:04:29.538Z,101950.53
2023-04-25T21:06:55.998Z,101943.72
2023-04-25T21:09:22.480Z,101939.56
2023-04-25T21:11:49.028Z,101943.31
2023-04-25T21:14:16.429Z,101941.78
2023-04-25T21:16:43.023Z,101939.50
2023-04-25T21:19:09.620Z,101940.22
2023-04-25T21:21:36.208Z,101934.16
2023-04-25T21:24:02.881Z,101929.28
2023-04-25T21:26:29.399Z,101934.22
2023-04-25T21:28:55.925Z,101937.25
2023-04-25T21:31:22.963Z,101932.34
2023-04-25T21:33:49.410Z,101936.47
2023-04-25T21:36:15.899Z,101937.94
2023-04-25T21:38:42.333Z,101938.66
2023-04-25T21:41:08.913Z,101940.16
2023-04-25T21:43:36.596Z,101944.28
2023-04-25T21:48:32.405Z,101942.38
2023-04-25T21:50:59.151Z,101946.50
2023-04-25T21:53:26.708Z,101950.59
2023-04-25T21:55:53.211Z,101952.44
2023-04-25T21:58:19.634Z,101946.00
2023-04-25T22:00:46.242Z,101949.41
2023-04-25T22:03:15.807Z,101949.72
2023-04-25T22:05:42.360Z,101956.09
2023-04-25T22:08:08.881Z,101953.41
2023-04-25T22:10:35.470Z,101957.91
2023-04-25T22:13:01.944Z,101958.25
2023-04-25T22:15:29.458Z,101958.59
2023-04-25T22:17:56.069Z,101958.19
2023-04-25T22:20:25.908Z,101960.00
2023-04-25T22:22:53.054Z,101962.63
2023-04-25T22:25:19.576Z,101964.06
2023-04-25T22:27:46.053Z,101965.53
2023-04-25T22:30:15.679Z,101968.84
2023-04-25T22:32:42.512Z,101977.06
2023-04-25T22:35:10.299Z,101967.97
2023-04-25T22:37:36.828Z,101973.59
2023-04-25T22:40:08.813Z,101970.16
2023-04-25T22:42:43.120Z,101973.13
2023-04-25T22:45:10.850Z,101976.88
2023-04-25T22:47:38.421Z,101975.00
2023-04-25T22:50:13.180Z,101981.72
2023-04-25T22:52:40.434Z,101983.19
2023-04-25T22:55:07.135Z,101981.63
2023-04-25T22:57:36.828Z,101977.84
2023-04-25T23:00:08.757Z,101985.00
2023-04-25T23:02:35.537Z,101981.25
2023-04-25T23:05:02.484Z,101975.97
2023-04-25T23:07:29.149Z,101984.94
2023-04-25T23:09:55.639Z,101988.63
2023-04-25T23:12:22.648Z,101988.91
2023-04-25T23:14:50.638Z,101991.47
2023-04-25T23:17:17.081Z,101992.94
2023-04-25T23:19:43.695Z,101988.84
2023-04-25T23:22:10.210Z,101989.34
2023-04-25T23:24:38.980Z,101992.78
2023-04-25T23:27:05.408Z,101989.78
2023-04-25T23:29:33.965Z,101993.94
2023-04-25T23:32:01.585Z,101990.94
2023-04-25T23:34:32.298Z,101994.75
2023-04-25T23:37:01.219Z,101986.50
2023-04-25T23:39:28.490Z,101991.00
2023-04-25T23:41:55.147Z,101987.66
2023-04-25T23:44:22.291Z,101985.03
2023-04-25T23:46:49.754Z,101983.91
2023-04-25T23:49:16.245Z,101974.53
2023-04-25T23:51:42.965Z,101975.72
2023-04-25T23:54:09.490Z,101974.94
2023-04-25T23:56:36.070Z,101972.72
2023-04-25T23:59:02.718Z,101973.44
